sensor_id;sensor_type;location;lat;lon;timestamp;P1;durP1;ratioP1;P2;durP2;ratioP2
65710;SDS011;52690;54.496;9.030;2023-01-23T00:00:12;7.03;;;1.95;;
65710;SDS011;52690;54.496;9.030;2023-01-23T00:01:14;4.85;;;2.08;;
65710;SDS011;52690;54.496;9.030;2023-01-23T00:02:15;3.85;;;1.90;;
65710;SDS011;52690;54.496;9.030;2023-01-23T00:03:15;5.05;;;2.00;;
65710;SDS011;52690;54.496;9.030;2023-01-23T00:04:15;7.43;;;2.17;;
65710;SDS011;52690;54.496;9.030;2023-01-23T00:05:16;3.55;;;2.00;;
65710;SDS011;52690;54.496;9.030;2023-01-23T00:06:16;5.18;;;2.28;;
65710;SDS011;52690;54.496;9.030;2023-01-23T00:07:17;6.70;;;2.40;;
65710;SDS011;52690;54.496;9.030;2023-01-23T00:08:17;4.20;;;1.95;;
65710;SDS011;52690;54.496;9.030;2023-01-23T00:09:20;5.55;;;1.98;;
65710;SDS011;52690;54.496;9.030;2023-01-23T00:10:20;8.95;;;2.85;;
65710;SDS011;52690;54.496;9.030;2023-01-23T00:11:21;5.10;;;2.00;;
65710;SDS011;52690;54.496;9.030;2023-01-23T00:12:21;4.10;;;1.98;;
65710;SDS011;52690;54.496;9.030;2023-01-23T00:13:22;5.43;;;2.03;;
65710;SDS011;52690;54.496;9.030;2023-01-23T00:14:22;3.00;;;2.10;;
65710;SDS011;52690;54.496;9.030;2023-01-23T00:15:22;7.28;;;2.53;;
65710;SDS011;52690;54.496;9.030;2023-01-23T00:16:24;4.80;;;2.65;;
65710;SDS011;52690;54.496;9.030;2023-01-23T00:17:25;6.57;;;2.40;;
65710;SDS011;52690;54.496;9.030;2023-01-23T00:18:26;3.95;;;2.20;;
65710;SDS011;52690;54.496;9.030;2023-01-23T00:19:26;6.57;;;2.60;;
65710;SDS011;52690;54.496;9.030;2023-01-23T00:20:26;7.55;;;2.50;;
65710;SDS011;52690;54.496;9.030;2023-01-23T00:21:27;4.82;;;2.30;;
65710;SDS011;52690;54.496;9.030;2023-01-23T00:22:27;6.55;;;2.55;;
65710;SDS011;52690;54.496;9.030;2023-01-23T00:23:28;3.97;;;2.38;;
65710;SDS011;52690;54.496;9.030;2023-01-23T00:24:28;4.28;;;2.40;;
65710;SDS011;52690;54.496;9.030;2023-01-23T00:25:28;3.95;;;2.20;;
65710;SDS011;52690;54.496;9.030;2023-01-23T00:26:29;9.55;;;2.53;;
65710;SDS011;52690;54.496;9.030;2023-01-23T00:27:29;7.57;;;2.67;;
65710;SDS011;52690;54.496;9.030;2023-01-23T00:28:29;5.35;;;2.40;;
65710;SDS011;52690;54.496;9.030;2023-01-23T00:29:29;5.15;;;2.38;;
65710;SDS011;52690;54.496;9.030;2023-01-23T00:30:29;6.43;;;2.17;;
65710;SDS011;52690;54.496;9.030;2023-01-23T00:31:31;3.70;;;2.33;;
65710;SDS011;52690;54.496;9.030;2023-01-23T00:32:31;7.07;;;2.47;;
65710;SDS011;52690;54.496;9.030;2023-01-23T00:33:32;5.78;;;2.70;;
65710;SDS011;52690;54.496;9.030;2023-01-23T00:34:32;4.20;;;2.40;;
65710;SDS011;52690;54.496;9.030;2023-01-23T00:35:35;6.28;;;2.40;;
65710;SDS011;52690;54.496;9.030;2023-01-23T00:36:36;4.32;;;2.58;;
65710;SDS011;52690;54.496;9.030;2023-01-23T00:37:37;4.78;;;2.50;;
65710;SDS011;52690;54.496;9.030;2023-01-23T00:38:37;7.30;;;3.10;;
65710;SDS011;52690;54.496;9.030;2023-01-23T00:39:37;3.35;;;2.33;;
65710;SDS011;52690;54.496;9.030;2023-01-23T00:40:37;5.28;;;2.53;;
65710;SDS011;52690;54.496;9.030;2023-01-23T00:41:37;5.32;;;2.42;;
65710;SDS011;52690;54.496;9.030;2023-01-23T00:42:38;3.60;;;2.15;;
65710;SDS011;52690;54.496;9.030;2023-01-23T00:43:38;4.10;;;2.30;;
65710;SDS011;52690;54.496;9.030;2023-01-23T00:44:38;13.77;;;2.55;;
65710;SDS011;52690;54.496;9.030;2023-01-23T00:45:38;3.28;;;2.10;;
65710;SDS011;52690;54.496;9.030;2023-01-23T00:46:39;8.20;;;2.70;;
65710;SDS011;52690;54.496;9.030;2023-01-23T00:47:39;6.43;;;2.50;;
65710;SDS011;52690;54.496;9.030;2023-01-23T00:48:39;7.25;;;2.45;;
65710;SDS011;52690;54.496;9.030;2023-01-23T00:49:39;7.32;;;2.72;;
65710;SDS011;52690;54.496;9.030;2023-01-23T00:50:39;5.82;;;2.80;;
65710;SDS011;52690;54.496;9.030;2023-01-23T00:51:39;5.93;;;2.17;;
65710;SDS011;52690;54.496;9.030;2023-01-23T00:52:39;5.20;;;2.67;;
65710;SDS011;52690;54.496;9.030;2023-01-23T00:53:40;3.05;;;2.22;;
65710;SDS011;52690;54.496;9.030;2023-01-23T00:54:40;3.92;;;2.42;;
65710;SDS011;52690;54.496;9.030;2023-01-23T00:55:41;4.38;;;2.38;;
65710;SDS011;52690;54.496;9.030;2023-01-23T00:56:41;15.27;;;3.00;;
65710;SDS011;52690;54.496;9.030;2023-01-23T00:57:41;5.68;;;2.45;;
65710;SDS011;52690;54.496;9.030;2023-01-23T00:58:41;3.85;;;2.42;;
65710;SDS011;52690;54.496;9.030;2023-01-23T00:59:41;7.57;;;2.70;;
65710;SDS011;52690;54.496;9.030;2023-01-23T01:00:42;4.45;;;2.90;;
65710;SDS011;52690;54.496;9.030;2023-01-23T01:01:42;7.30;;;2.47;;
65710;SDS011;52690;54.496;9.030;2023-01-23T01:02:42;7.43;;;2.28;;
65710;SDS011;52690;54.496;9.030;2023-01-23T01:03:42;3.63;;;2.50;;
65710;SDS011;52690;54.496;9.030;2023-01-23T01:04:43;4.35;;;2.50;;
65710;SDS011;52690;54.496;9.030;2023-01-23T01:05:43;5.28;;;2.50;;
65710;SDS011;52690;54.496;9.030;2023-01-23T01:06:43;3.15;;;2.30;;
65710;SDS011;52690;54.496;9.030;2023-01-23T01:07:43;10.45;;;2.75;;
65710;SDS011;52690;54.496;9.030;2023-01-23T01:08:44;5.18;;;2.80;;
65710;SDS011;52690;54.496;9.030;2023-01-23T01:09:44;4.63;;;2.90;;
65710;SDS011;52690;54.496;9.030;2023-01-23T01:10:44;8.20;;;3.17;;
65710;SDS011;52690;54.496;9.030;2023-01-23T01:11:44;6.25;;;2.60;;
65710;SDS011;52690;54.496;9.030;2023-01-23T01:12:44;4.82;;;2.38;;
65710;SDS011;52690;54.496;9.030;2023-01-23T01:13:46;4.22;;;2.55;;
65710;SDS011;52690;54.496;9.030;2023-01-23T01:14:46;2.78;;;2.28;;
65710;SDS011;52690;54.496;9.030;2023-01-23T01:15:50;5.05;;;2.63;;
65710;SDS011;52690;54.496;9.030;2023-01-23T01:16:50;4.85;;;2.70;;
65710;SDS011;52690;54.496;9.030;2023-01-23T01:17:50;8.57;;;2.88;;
65710;SDS011;52690;54.496;9.030;2023-01-23T01:18:53;4.68;;;2.80;;
65710;SDS011;52690;54.496;9.030;2023-01-23T01:19:53;2.85;;;2.40;;
65710;SDS011;52690;54.496;9.030;2023-01-23T01:20:54;6.00;;;2.65;;
65710;SDS011;52690;54.496;9.030;2023-01-23T01:21:54;5.93;;;2.38;;
65710;SDS011;52690;54.496;9.030;2023-01-23T01:22:55;4.93;;;2.70;;
65710;SDS011;52690;54.496;9.030;2023-01-23T01:23:56;6.35;;;2.58;;
65710;SDS011;52690;54.496;9.030;2023-01-23T01:24:56;7.28;;;2.60;;
65710;SDS011;52690;54.496;9.030;2023-01-23T01:25:59;5.28;;;2.45;;
65710;SDS011;52690;54.496;9.030;2023-01-23T01:26:59;8.63;;;2.60;;
65710;SDS011;52690;54.496;9.030;2023-01-23T01:28:00;4.85;;;2.60;;
65710;SDS011;52690;54.496;9.030;2023-01-23T01:29:00;7.35;;;2.38;;
65710;SDS011;52690;54.496;9.030;2023-01-23T01:30:00;5.65;;;2.92;;
65710;SDS011;52690;54.496;9.030;2023-01-23T01:31:05;5.55;;;2.70;;
65710;SDS011;52690;54.496;9.030;2023-01-23T01:32:06;4.18;;;2.85;;
65710;SDS011;52690;54.496;9.030;2023-01-23T01:33:06;4.18;;;2.47;;
65710;SDS011;52690;54.496;9.030;2023-01-23T01:34:06;4.60;;;2.33;;
65710;SDS011;52690;54.496;9.030;2023-01-23T01:35:07;8.88;;;2.55;;
65710;SDS011;52690;54.496;9.030;2023-01-23T01:36:08;8.50;;;2.75;;
65710;SDS011;52690;54.496;9.030;2023-01-23T01:37:09;6.38;;;2.45;;
65710;SDS011;52690;54.496;9.030;2023-01-23T01:38:09;7.45;;;3.15;;
65710;SDS011;52690;54.496;9.030;2023-01-23T01:39:09;8.65;;;2.78;;
65710;SDS011;52690;54.496;9.030;2023-01-23T01:40:13;2.47;;;2.28;;
65710;SDS011;52690;54.496;9.030;2023-01-23T01:41:14;8.70;;;2.55;;
65710;SDS011;52690;54.496;9.030;2023-01-23T01:42:15;5.55;;;2.28;;
65710;SDS011;52690;54.496;9.030;2023-01-23T01:43:19;4.80;;;2.30;;
65710;SDS011;52690;54.496;9.030;2023-01-23T01:44:20;5.22;;;2.35;;
65710;SDS011;52690;54.496;9.030;2023-01-23T01:46:40;4.75;;;2.30;;
65710;SDS011;52690;54.496;9.030;2023-01-23T01:47:40;6.15;;;2.45;;
65710;SDS011;52690;54.496;9.030;2023-01-23T01:49:50;5.72;;;2.97;;
65710;SDS011;52690;54.496;9.030;2023-01-23T01:50:51;3.90;;;2.50;;
65710;SDS011;52690;54.496;9.030;2023-01-23T01:51:53;6.50;;;2.65;;
65710;SDS011;52690;54.496;9.030;2023-01-23T01:52:55;6.43;;;2.83;;
65710;SDS011;52690;54.496;9.030;2023-01-23T01:55:02;2.40;;;2.20;;
65710;SDS011;52690;54.496;9.030;2023-01-23T01:56:03;6.65;;;2.60;;
65710;SDS011;52690;54.496;9.030;2023-01-23T01:57:05;3.70;;;2.35;;
65710;SDS011;52690;54.496;9.030;2023-01-23T01:58:06;2.33;;;2.10;;
65710;SDS011;52690;54.496;9.030;2023-01-23T01:59:07;3.30;;;2.30;;
65710;SDS011;52690;54.496;9.030;2023-01-23T02:00:12;4.53;;;2.47;;
65710;SDS011;52690;54.496;9.030;2023-01-23T02:01:14;2.65;;;2.45;;
65710;SDS011;52690;54.496;9.030;2023-01-23T02:02:16;7.10;;;2.40;;
65710;SDS011;52690;54.496;9.030;2023-01-23T02:03:18;4.90;;;2.45;;
65710;SDS011;52690;54.496;9.030;2023-01-23T02:04:18;4.57;;;2.65;;
65710;SDS011;52690;54.496;9.030;2023-01-23T02:05:20;7.63;;;2.72;;
65710;SDS011;52690;54.496;9.030;2023-01-23T02:06:21;3.83;;;2.50;;
65710;SDS011;52690;54.496;9.030;2023-01-23T02:07:24;5.68;;;2.83;;
65710;SDS011;52690;54.496;9.030;2023-01-23T02:08:26;6.75;;;2.60;;
65710;SDS011;52690;54.496;9.030;2023-01-23T02:09:27;4.15;;;2.42;;
65710;SDS011;52690;54.496;9.030;2023-01-23T02:10:28;4.07;;;2.17;;
65710;SDS011;52690;54.496;9.030;2023-01-23T02:11:28;3.28;;;2.38;;
65710;SDS011;52690;54.496;9.030;2023-01-23T02:12:28;4.55;;;2.72;;
65710;SDS011;52690;54.496;9.030;2023-01-23T02:13:33;5.38;;;2.65;;
65710;SDS011;52690;54.496;9.030;2023-01-23T02:14:37;8.95;;;2.83;;
65710;SDS011;52690;54.496;9.030;2023-01-23T02:15:37;5.90;;;2.72;;
65710;SDS011;52690;54.496;9.030;2023-01-23T02:16:38;3.92;;;2.47;;
65710;SDS011;52690;54.496;9.030;2023-01-23T02:17:42;4.35;;;2.40;;
65710;SDS011;52690;54.496;9.030;2023-01-23T02:18:43;5.03;;;2.67;;
65710;SDS011;52690;54.496;9.030;2023-01-23T02:21:05;5.55;;;2.35;;
65710;SDS011;52690;54.496;9.030;2023-01-23T02:23:18;4.18;;;2.78;;
65710;SDS011;52690;54.496;9.030;2023-01-23T02:24:23;6.07;;;2.88;;
65710;SDS011;52690;54.496;9.030;2023-01-23T02:25:38;4.05;;;2.45;;
65710;SDS011;52690;54.496;9.030;2023-01-23T02:26:41;9.13;;;2.83;;
65710;SDS011;52690;54.496;9.030;2023-01-23T02:27:42;3.15;;;2.42;;
65710;SDS011;52690;54.496;9.030;2023-01-23T02:28:44;7.22;;;3.13;;
65710;SDS011;52690;54.496;9.030;2023-01-23T02:29:45;6.40;;;2.65;;
65710;SDS011;52690;54.496;9.030;2023-01-23T02:30:47;9.48;;;2.25;;
65710;SDS011;52690;54.496;9.030;2023-01-23T02:31:49;6.72;;;2.88;;
65710;SDS011;52690;54.496;9.030;2023-01-23T02:32:51;3.50;;;3.00;;
65710;SDS011;52690;54.496;9.030;2023-01-23T02:33:52;4.55;;;2.72;;
65710;SDS011;52690;54.496;9.030;2023-01-23T02:34:53;4.63;;;2.40;;
65710;SDS011;52690;54.496;9.030;2023-01-23T02:35:59;4.28;;;2.65;;
65710;SDS011;52690;54.496;9.030;2023-01-23T02:37:00;4.43;;;2.60;;
65710;SDS011;52690;54.496;9.030;2023-01-23T02:38:01;4.03;;;2.80;;
65710;SDS011;52690;54.496;9.030;2023-01-23T02:39:07;6.18;;;2.80;;
65710;SDS011;52690;54.496;9.030;2023-01-23T02:40:08;6.30;;;3.15;;
65710;SDS011;52690;54.496;9.030;2023-01-23T02:41:08;6.35;;;2.85;;
65710;SDS011;52690;54.496;9.030;2023-01-23T02:42:09;5.90;;;2.70;;
65710;SDS011;52690;54.496;9.030;2023-01-23T02:43:12;3.25;;;2.25;;
65710;SDS011;52690;54.496;9.030;2023-01-23T02:44:26;4.68;;;2.72;;
65710;SDS011;52690;54.496;9.030;2023-01-23T02:45:27;6.72;;;3.20;;
65710;SDS011;52690;54.496;9.030;2023-01-23T02:46:27;5.70;;;2.90;;
65710;SDS011;52690;54.496;9.030;2023-01-23T02:47:27;4.75;;;2.47;;
65710;SDS011;52690;54.496;9.030;2023-01-23T02:48:28;5.97;;;2.65;;
65710;SDS011;52690;54.496;9.030;2023-01-23T02:49:28;7.97;;;3.03;;
65710;SDS011;52690;54.496;9.030;2023-01-23T02:50:29;6.90;;;2.70;;
65710;SDS011;52690;54.496;9.030;2023-01-23T02:51:29;4.30;;;2.58;;
65710;SDS011;52690;54.496;9.030;2023-01-23T02:52:30;3.35;;;2.58;;
65710;SDS011;52690;54.496;9.030;2023-01-23T02:53:31;4.20;;;2.60;;
65710;SDS011;52690;54.496;9.030;2023-01-23T02:54:31;3.55;;;2.30;;
65710;SDS011;52690;54.496;9.030;2023-01-23T02:55:31;3.67;;;2.97;;
65710;SDS011;52690;54.496;9.030;2023-01-23T02:56:32;6.93;;;2.75;;
65710;SDS011;52690;54.496;9.030;2023-01-23T02:57:33;4.72;;;2.45;;
65710;SDS011;52690;54.496;9.030;2023-01-23T02:58:33;7.78;;;2.80;;
65710;SDS011;52690;54.496;9.030;2023-01-23T02:59:52;3.53;;;2.50;;
65710;SDS011;52690;54.496;9.030;2023-01-23T03:01:11;5.20;;;2.75;;
65710;SDS011;52690;54.496;9.030;2023-01-23T03:02:11;7.82;;;2.58;;
65710;SDS011;52690;54.496;9.030;2023-01-23T03:03:13;3.85;;;2.25;;
65710;SDS011;52690;54.496;9.030;2023-01-23T03:04:14;4.72;;;2.35;;
65710;SDS011;52690;54.496;9.030;2023-01-23T03:05:18;7.38;;;2.40;;
65710;SDS011;52690;54.496;9.030;2023-01-23T03:06:18;4.93;;;2.35;;
65710;SDS011;52690;54.496;9.030;2023-01-23T03:07:19;4.65;;;2.55;;
65710;SDS011;52690;54.496;9.030;2023-01-23T03:08:20;6.68;;;2.88;;
65710;SDS011;52690;54.496;9.030;2023-01-23T03:09:20;4.25;;;2.60;;
65710;SDS011;52690;54.496;9.030;2023-01-23T03:10:21;6.57;;;3.05;;
65710;SDS011;52690;54.496;9.030;2023-01-23T03:11:21;5.57;;;3.28;;
65710;SDS011;52690;54.496;9.030;2023-01-23T03:12:22;5.85;;;2.80;;
65710;SDS011;52690;54.496;9.030;2023-01-23T03:13:22;4.43;;;2.60;;
65710;SDS011;52690;54.496;9.030;2023-01-23T03:14:22;4.13;;;2.45;;
65710;SDS011;52690;54.496;9.030;2023-01-23T03:15:23;6.15;;;2.78;;
65710;SDS011;52690;54.496;9.030;2023-01-23T03:16:23;8.38;;;2.97;;
65710;SDS011;52690;54.496;9.030;2023-01-23T03:17:23;7.40;;;2.63;;
65710;SDS011;52690;54.496;9.030;2023-01-23T03:18:24;5.20;;;3.10;;
65710;SDS011;52690;54.496;9.030;2023-01-23T03:19:26;3.25;;;2.33;;
65710;SDS011;52690;54.496;9.030;2023-01-23T03:20:26;6.75;;;2.45;;
65710;SDS011;52690;54.496;9.030;2023-01-23T03:21:27;5.90;;;2.63;;
65710;SDS011;52690;54.496;9.030;2023-01-23T03:22:27;5.28;;;2.58;;
65710;SDS011;52690;54.496;9.030;2023-01-23T03:23:27;3.88;;;2.40;;
65710;SDS011;52690;54.496;9.030;2023-01-23T03:24:28;6.80;;;2.70;;
65710;SDS011;52690;54.496;9.030;2023-01-23T03:25:28;3.65;;;2.50;;
65710;SDS011;52690;54.496;9.030;2023-01-23T03:26:28;5.35;;;2.58;;
65710;SDS011;52690;54.496;9.030;2023-01-23T03:27:28;3.70;;;2.33;;
65710;SDS011;52690;54.496;9.030;2023-01-23T03:28:28;3.38;;;2.25;;
65710;SDS011;52690;54.496;9.030;2023-01-23T03:29:47;6.88;;;2.55;;
65710;SDS011;52690;54.496;9.030;2023-01-23T03:31:06;3.38;;;2.63;;
65710;SDS011;52690;54.496;9.030;2023-01-23T03:32:06;3.05;;;2.40;;
65710;SDS011;52690;54.496;9.030;2023-01-23T03:33:07;4.13;;;2.72;;
65710;SDS011;52690;54.496;9.030;2023-01-23T03:34:07;5.70;;;2.72;;
65710;SDS011;52690;54.496;9.030;2023-01-23T03:35:08;7.53;;;2.63;;
65710;SDS011;52690;54.496;9.030;2023-01-23T03:36:15;4.47;;;2.55;;
65710;SDS011;52690;54.496;9.030;2023-01-23T03:37:15;3.85;;;2.67;;
65710;SDS011;52690;54.496;9.030;2023-01-23T03:38:16;3.67;;;2.88;;
65710;SDS011;52690;54.496;9.030;2023-01-23T03:39:18;5.07;;;2.85;;
65710;SDS011;52690;54.496;9.030;2023-01-23T03:40:36;4.00;;;2.40;;
65710;SDS011;52690;54.496;9.030;2023-01-23T03:41:55;7.93;;;2.47;;
65710;SDS011;52690;54.496;9.030;2023-01-23T03:42:55;3.97;;;2.83;;
65710;SDS011;52690;54.496;9.030;2023-01-23T03:43:56;3.50;;;2.60;;
65710;SDS011;52690;54.496;9.030;2023-01-23T03:44:56;3.65;;;2.72;;
65710;SDS011;52690;54.496;9.030;2023-01-23T03:45:56;3.97;;;2.58;;
65710;SDS011;52690;54.496;9.030;2023-01-23T03:46:56;6.60;;;2.70;;
65710;SDS011;52690;54.496;9.030;2023-01-23T03:47:57;2.80;;;2.60;;
65710;SDS011;52690;54.496;9.030;2023-01-23T03:48:57;5.80;;;3.10;;
65710;SDS011;52690;54.496;9.030;2023-01-23T03:49:57;4.22;;;2.70;;
65710;SDS011;52690;54.496;9.030;2023-01-23T03:50:57;5.05;;;2.97;;
65710;SDS011;52690;54.496;9.030;2023-01-23T03:51:57;4.50;;;2.70;;
65710;SDS011;52690;54.496;9.030;2023-01-23T03:52:58;5.95;;;3.00;;
65710;SDS011;52690;54.496;9.030;2023-01-23T03:53:58;4.53;;;3.10;;
65710;SDS011;52690;54.496;9.030;2023-01-23T03:54:58;8.25;;;2.80;;
65710;SDS011;52690;54.496;9.030;2023-01-23T03:55:58;5.90;;;2.97;;
65710;SDS011;52690;54.496;9.030;2023-01-23T03:56:58;5.35;;;2.92;;
65710;SDS011;52690;54.496;9.030;2023-01-23T03:57:58;7.10;;;2.63;;
65710;SDS011;52690;54.496;9.030;2023-01-23T03:58:59;6.93;;;3.17;;
65710;SDS011;52690;54.496;9.030;2023-01-23T03:59:59;7.07;;;2.88;;
65710;SDS011;52690;54.496;9.030;2023-01-23T04:00:59;3.05;;;2.75;;
65710;SDS011;52690;54.496;9.030;2023-01-23T04:02:02;3.38;;;3.08;;
65710;SDS011;52690;54.496;9.030;2023-01-23T04:03:04;5.63;;;2.95;;
65710;SDS011;52690;54.496;9.030;2023-01-23T04:04:04;4.50;;;2.90;;
65710;SDS011;52690;54.496;9.030;2023-01-23T04:05:04;5.35;;;2.83;;
65710;SDS011;52690;54.496;9.030;2023-01-23T04:06:04;4.18;;;2.63;;
65710;SDS011;52690;54.496;9.030;2023-01-23T04:07:05;5.22;;;3.00;;
65710;SDS011;52690;54.496;9.030;2023-01-23T04:08:05;5.13;;;2.95;;
65710;SDS011;52690;54.496;9.030;2023-01-23T04:09:05;6.10;;;2.95;;
65710;SDS011;52690;54.496;9.030;2023-01-23T04:10:05;6.43;;;3.05;;
65710;SDS011;52690;54.496;9.030;2023-01-23T04:11:06;4.32;;;3.00;;
65710;SDS011;52690;54.496;9.030;2023-01-23T04:12:07;6.38;;;2.90;;
65710;SDS011;52690;54.496;9.030;2023-01-23T04:13:07;6.35;;;3.28;;
65710;SDS011;52690;54.496;9.030;2023-01-23T04:14:07;6.25;;;2.80;;
65710;SDS011;52690;54.496;9.030;2023-01-23T04:15:07;5.05;;;2.97;;
65710;SDS011;52690;54.496;9.030;2023-01-23T04:16:08;6.35;;;2.97;;
65710;SDS011;52690;54.496;9.030;2023-01-23T04:17:08;3.20;;;2.75;;
65710;SDS011;52690;54.496;9.030;2023-01-23T04:18:08;8.55;;;2.80;;
65710;SDS011;52690;54.496;9.030;2023-01-23T04:19:08;5.97;;;2.88;;
65710;SDS011;52690;54.496;9.030;2023-01-23T04:20:09;8.25;;;3.35;;
65710;SDS011;52690;54.496;9.030;2023-01-23T04:21:09;5.80;;;2.90;;
65710;SDS011;52690;54.496;9.030;2023-01-23T04:22:10;4.47;;;2.63;;
65710;SDS011;52690;54.496;9.030;2023-01-23T04:23:10;4.07;;;2.53;;
65710;SDS011;52690;54.496;9.030;2023-01-23T04:24:10;4.88;;;3.00;;
65710;SDS011;52690;54.496;9.030;2023-01-23T04:25:10;4.93;;;2.78;;
65710;SDS011;52690;54.496;9.030;2023-01-23T04:26:11;4.15;;;2.63;;
65710;SDS011;52690;54.496;9.030;2023-01-23T04:27:11;3.55;;;2.38;;
65710;SDS011;52690;54.496;9.030;2023-01-23T04:28:11;8.38;;;3.17;;
65710;SDS011;52690;54.496;9.030;2023-01-23T04:29:11;4.95;;;3.10;;
65710;SDS011;52690;54.496;9.030;2023-01-23T04:30:12;4.68;;;2.83;;
65710;SDS011;52690;54.496;9.030;2023-01-23T04:31:12;5.35;;;2.88;;
65710;SDS011;52690;54.496;9.030;2023-01-23T04:32:12;5.97;;;3.20;;
65710;SDS011;52690;54.496;9.030;2023-01-23T04:33:12;7.00;;;2.63;;
65710;SDS011;52690;54.496;9.030;2023-01-23T04:34:13;3.97;;;2.80;;
65710;SDS011;52690;54.496;9.030;2023-01-23T04:35:13;5.30;;;3.03;;
65710;SDS011;52690;54.496;9.030;2023-01-23T04:36:13;3.22;;;2.22;;
65710;SDS011;52690;54.496;9.030;2023-01-23T04:37:13;3.58;;;2.75;;
65710;SDS011;52690;54.496;9.030;2023-01-23T04:38:13;4.55;;;2.40;;
65710;SDS011;52690;54.496;9.030;2023-01-23T04:39:13;6.03;;;3.03;;
65710;SDS011;52690;54.496;9.030;2023-01-23T04:40:14;7.22;;;3.10;;
65710;SDS011;52690;54.496;9.030;2023-01-23T04:41:17;4.90;;;2.83;;
65710;SDS011;52690;54.496;9.030;2023-01-23T04:42:18;5.03;;;3.22;;
65710;SDS011;52690;54.496;9.030;2023-01-23T04:43:18;5.43;;;2.65;;
65710;SDS011;52690;54.496;9.030;2023-01-23T04:44:18;5.80;;;3.10;;
65710;SDS011;52690;54.496;9.030;2023-01-23T04:45:21;3.97;;;2.85;;
65710;SDS011;52690;54.496;9.030;2023-01-23T04:46:21;6.15;;;3.15;;
65710;SDS011;52690;54.496;9.030;2023-01-23T04:47:22;5.18;;;2.75;;
65710;SDS011;52690;54.496;9.030;2023-01-23T04:48:22;7.03;;;3.30;;
65710;SDS011;52690;54.496;9.030;2023-01-23T04:49:23;3.22;;;2.72;;
65710;SDS011;52690;54.496;9.030;2023-01-23T04:50:23;4.88;;;2.78;;
65710;SDS011;52690;54.496;9.030;2023-01-23T04:51:24;6.32;;;3.10;;
65710;SDS011;52690;54.496;9.030;2023-01-23T04:52:24;7.18;;;3.13;;
65710;SDS011;52690;54.496;9.030;2023-01-23T04:53:24;7.53;;;3.28;;
65710;SDS011;52690;54.496;9.030;2023-01-23T04:54:24;5.57;;;3.53;;
65710;SDS011;52690;54.496;9.030;2023-01-23T04:55:24;4.35;;;2.90;;
65710;SDS011;52690;54.496;9.030;2023-01-23T04:56:25;3.85;;;2.58;;
65710;SDS011;52690;54.496;9.030;2023-01-23T04:57:25;5.45;;;2.55;;
65710;SDS011;52690;54.496;9.030;2023-01-23T04:58:25;3.83;;;2.60;;
65710;SDS011;52690;54.496;9.030;2023-01-23T04:59:25;4.53;;;3.13;;
65710;SDS011;52690;54.496;9.030;2023-01-23T05:00:25;6.93;;;3.03;;
65710;SDS011;52690;54.496;9.030;2023-01-23T05:01:27;6.22;;;3.20;;
65710;SDS011;52690;54.496;9.030;2023-01-23T05:02:28;4.93;;;3.10;;
65710;SDS011;52690;54.496;9.030;2023-01-23T05:03:28;4.15;;;2.75;;
65710;SDS011;52690;54.496;9.030;2023-01-23T05:04:28;7.68;;;3.20;;
65710;SDS011;52690;54.496;9.030;2023-01-23T05:05:28;5.07;;;3.13;;
65710;SDS011;52690;54.496;9.030;2023-01-23T05:06:28;3.60;;;3.13;;
65710;SDS011;52690;54.496;9.030;2023-01-23T05:07:28;4.65;;;2.78;;
65710;SDS011;52690;54.496;9.030;2023-01-23T05:08:29;6.82;;;3.40;;
65710;SDS011;52690;54.496;9.030;2023-01-23T05:09:29;6.25;;;3.88;;
65710;SDS011;52690;54.496;9.030;2023-01-23T05:10:29;5.70;;;3.10;;
65710;SDS011;52690;54.496;9.030;2023-01-23T05:11:29;10.95;;;3.13;;
65710;SDS011;52690;54.496;9.030;2023-01-23T05:12:30;5.13;;;2.90;;
65710;SDS011;52690;54.496;9.030;2023-01-23T05:13:30;4.80;;;3.00;;
65710;SDS011;52690;54.496;9.030;2023-01-23T05:14:30;5.43;;;3.30;;
65710;SDS011;52690;54.496;9.030;2023-01-23T05:15:30;5.65;;;3.33;;
65710;SDS011;52690;54.496;9.030;2023-01-23T05:16:31;5.40;;;3.70;;
65710;SDS011;52690;54.496;9.030;2023-01-23T05:17:31;4.38;;;3.47;;
65710;SDS011;52690;54.496;9.030;2023-01-23T05:18:31;7.55;;;3.28;;
65710;SDS011;52690;54.496;9.030;2023-01-23T05:19:31;4.20;;;3.17;;
65710;SDS011;52690;54.496;9.030;2023-01-23T05:20:31;11.10;;;3.65;;
65710;SDS011;52690;54.496;9.030;2023-01-23T05:21:31;7.93;;;3.45;;
65710;SDS011;52690;54.496;9.030;2023-01-23T05:22:31;5.88;;;3.63;;
65710;SDS011;52690;54.496;9.030;2023-01-23T05:23:32;5.13;;;3.17;;
65710;SDS011;52690;54.496;9.030;2023-01-23T05:24:32;6.68;;;3.45;;
65710;SDS011;52690;54.496;9.030;2023-01-23T05:25:32;6.53;;;3.50;;
65710;SDS011;52690;54.496;9.030;2023-01-23T05:26:33;3.55;;;3.25;;
65710;SDS011;52690;54.496;9.030;2023-01-23T05:27:34;4.95;;;3.50;;
65710;SDS011;52690;54.496;9.030;2023-01-23T05:28:34;4.43;;;3.22;;
65710;SDS011;52690;54.496;9.030;2023-01-23T05:29:34;9.75;;;3.70;;
65710;SDS011;52690;54.496;9.030;2023-01-23T05:30:34;5.25;;;3.38;;
65710;SDS011;52690;54.496;9.030;2023-01-23T05:31:34;6.82;;;3.42;;
65710;SDS011;52690;54.496;9.030;2023-01-23T05:32:34;5.88;;;3.60;;
65710;SDS011;52690;54.496;9.030;2023-01-23T05:33:34;6.57;;;3.83;;
65710;SDS011;52690;54.496;9.030;2023-01-23T05:34:35;7.18;;;3.53;;
65710;SDS011;52690;54.496;9.030;2023-01-23T05:35:37;4.20;;;3.67;;
65710;SDS011;52690;54.496;9.030;2023-01-23T05:36:37;5.95;;;3.72;;
65710;SDS011;52690;54.496;9.030;2023-01-23T05:37:37;5.43;;;3.85;;
65710;SDS011;52690;54.496;9.030;2023-01-23T05:38:37;6.47;;;3.33;;
65710;SDS011;52690;54.496;9.030;2023-01-23T05:39:37;6.57;;;3.92;;
65710;SDS011;52690;54.496;9.030;2023-01-23T05:40:38;6.68;;;3.92;;
65710;SDS011;52690;54.496;9.030;2023-01-23T05:41:38;5.85;;;3.80;;
65710;SDS011;52690;54.496;9.030;2023-01-23T05:42:38;7.43;;;3.90;;
65710;SDS011;52690;54.496;9.030;2023-01-23T05:43:38;5.93;;;4.00;;
65710;SDS011;52690;54.496;9.030;2023-01-23T05:44:38;9.45;;;4.05;;
65710;SDS011;52690;54.496;9.030;2023-01-23T05:45:38;5.75;;;4.07;;
65710;SDS011;52690;54.496;9.030;2023-01-23T05:46:38;7.25;;;4.10;;
65710;SDS011;52690;54.496;9.030;2023-01-23T05:47:39;5.03;;;4.00;;
65710;SDS011;52690;54.496;9.030;2023-01-23T05:48:40;7.15;;;4.30;;
65710;SDS011;52690;54.496;9.030;2023-01-23T05:49:40;5.05;;;3.30;;
65710;SDS011;52690;54.496;9.030;2023-01-23T05:50:40;4.93;;;3.63;;
65710;SDS011;52690;54.496;9.030;2023-01-23T05:51:40;4.82;;;3.90;;
65710;SDS011;52690;54.496;9.030;2023-01-23T05:52:40;5.38;;;3.80;;
65710;SDS011;52690;54.496;9.030;2023-01-23T05:53:40;5.13;;;3.80;;
65710;SDS011;52690;54.496;9.030;2023-01-23T05:54:41;6.20;;;3.97;;
65710;SDS011;52690;54.496;9.030;2023-01-23T05:55:41;7.55;;;4.15;;
65710;SDS011;52690;54.496;9.030;2023-01-23T05:56:41;4.55;;;3.67;;
65710;SDS011;52690;54.496;9.030;2023-01-23T05:57:41;8.55;;;4.35;;
65710;SDS011;52690;54.496;9.030;2023-01-23T05:58:41;7.93;;;3.88;;
65710;SDS011;52690;54.496;9.030;2023-01-23T05:59:41;5.80;;;3.97;;
65710;SDS011;52690;54.496;9.030;2023-01-23T06:00:42;9.30;;;4.32;;
65710;SDS011;52690;54.496;9.030;2023-01-23T06:01:42;9.13;;;4.00;;
65710;SDS011;52690;54.496;9.030;2023-01-23T06:02:42;8.35;;;3.55;;
65710;SDS011;52690;54.496;9.030;2023-01-23T06:03:42;6.88;;;3.85;;
65710;SDS011;52690;54.496;9.030;2023-01-23T06:04:42;4.75;;;3.67;;
65710;SDS011;52690;54.496;9.030;2023-01-23T06:05:42;5.90;;;3.88;;
65710;SDS011;52690;54.496;9.030;2023-01-23T06:06:42;4.38;;;3.63;;
65710;SDS011;52690;54.496;9.030;2023-01-23T06:07:43;7.80;;;4.03;;
65710;SDS011;52690;54.496;9.030;2023-01-23T06:08:43;6.38;;;4.00;;
65710;SDS011;52690;54.496;9.030;2023-01-23T06:09:43;4.90;;;3.78;;
65710;SDS011;52690;54.496;9.030;2023-01-23T06:10:43;4.78;;;3.75;;
65710;SDS011;52690;54.496;9.030;2023-01-23T06:11:43;5.28;;;4.15;;
65710;SDS011;52690;54.496;9.030;2023-01-23T06:12:44;5.38;;;4.25;;
65710;SDS011;52690;54.496;9.030;2023-01-23T06:13:44;6.38;;;4.38;;